Airfield :
LOGIN :

Register | Disclaimer

   EN    FR    IT 

 










Legend :    VFR   Marginal VFR   IFR   Intensive IFR   Very Intensive IFR
Visi :
Ceiling :
>= 8 km
>= 3000ft
5 to 8 km
1000 to 3000 ft
1500m to 5 km
500 to 1000 ft
800 to 1500m
200 to 500 ft
< 800m
< 200 ft
Symbols :   Thunderstorms  Fog  Heavy snow  Heavy precipitations  Wind > 20 kt
SIGMETs :     Misc.  Thunderstorms  Icing  Turbulence  Mountain Waves  Volcanic Ashes







- Airport Elevation : 247 ft
- IATA code : BLL


EKBI - Billund

CURRENT METAR :
  • 201420Z AUTO 28012KT 9999NDV BKN026/// BKN160/// 13/07 Q1027

EXPIRED METARs :
  • 201350Z AUTO 28013KT 9999NDV BKN027/// BKN170/// 13/06 Q1027
  • 201320Z AUTO 29013KT 9999NDV FEW029/// 13/07 Q1027
  • 201250Z AUTO 31011KT 9999NDV NCD 12/07 Q1027
  • 201220Z AUTO 29012KT 9999NDV BKN028/// 13/06 Q1027
  • 201150Z AUTO 27012KT 9999NDV BKN028/// 13/08 Q1027

TAF TAF EKBI
Valid from the 20 at 12:00 until the 21 at 12:00 UTC


201057Z 2012/2112 28010KT 9999 SCT025
BECMG 2019/2022 21008KT
BECMG 2104/2106 BKN012
TEMPO 2106/2112 4000 BR BKN008
No reported NOTAMs for that airfield.



MET'MAP, your aeronautical weather chart ! - Copyright ORBIFLY December 2007 - Disclaimer

ORBIFLY MET'MAP TEAM :

Programming & Development : Alexandra Zaïnal
Concept & Development : Baudouin d'Aumeries
Co-Development & Prog : Marc-Olivier Méhu
Technical & hardware support : Manuel Goepfert

Contact : metmap@orbifly.com




SOURCES & CREDITS :

   NOAA